createdAt,value
2023-01-13T00:00:43.269Z,0.30
2023-01-13T00:03:10.823Z,0.15
2023-01-13T00:05:39.019Z,0.20
2023-01-13T00:08:07.009Z,0.10
2023-01-13T00:10:35.712Z,0.25
2023-01-13T00:13:05.151Z,0.20
2023-01-13T00:15:32.899Z,0.30
2023-01-13T00:18:01.905Z,0.22
2023-01-13T00:20:29.460Z,0.38
2023-01-13T00:22:58.712Z,0.20
2023-01-13T00:25:26.315Z,0.20
2023-01-13T00:27:53.826Z,0.10
2023-01-13T00:30:21.533Z,0.28
2023-01-13T00:32:49.047Z,0.20
2023-01-13T00:35:17.896Z,0.20
2023-01-13T00:37:45.414Z,0.30
2023-01-13T00:40:13.568Z,0.20
2023-01-13T00:42:58.992Z,0.20
2023-01-13T00:45:26.524Z,0.20
2023-01-13T00:47:54.105Z,0.10
2023-01-13T00:50:22.960Z,0.20
2023-01-13T00:52:50.469Z,0.20
2023-01-13T00:55:18.029Z,0.10
2023-01-13T00:57:45.506Z,0.15
2023-01-13T01:00:13.858Z,0.22
2023-01-13T01:02:41.381Z,0.20
2023-01-13T01:05:09.780Z,0.50
2023-01-13T01:07:38.656Z,0.30
2023-01-13T01:10:07.194Z,0.10
2023-01-13T01:12:35.542Z,0.10
2023-01-13T01:15:05.877Z,0.20
2023-01-13T01:17:33.404Z,0.40
2023-01-13T01:20:00.947Z,0.20
2023-01-13T01:22:28.506Z,0.20
2023-01-13T01:24:58.093Z,0.30
2023-01-13T01:27:25.711Z,0.10
2023-01-13T01:29:53.234Z,0.10
2023-01-13T01:32:20.840Z,0.10
2023-01-13T01:34:48.352Z,0.20
2023-01-13T01:37:15.834Z,0.30
2023-01-13T01:39:43.409Z,0.10
2023-01-13T01:42:35.276Z,0.25
2023-01-13T01:45:14.928Z,0.20
2023-01-13T01:47:43.401Z,0.20
2023-01-13T01:50:12.048Z,0.20
2023-01-13T01:52:42.646Z,0.10
2023-01-13T01:55:14.410Z,0.35
2023-01-13T01:57:49.036Z,0.20
2023-01-13T02:00:17.056Z,0.10
2023-01-13T02:02:47.510Z,0.17
2023-01-13T02:05:15.295Z,0.30
2023-01-13T02:07:45.211Z,0.28
2023-01-13T02:10:16.044Z,0.20
2023-01-13T02:12:46.526Z,0.20
2023-01-13T02:15:16.283Z,0.10
2023-01-13T02:18:08.587Z,0.30
2023-01-13T02:21:08.819Z,0.20
2023-01-13T02:24:17.883Z,0.10
2023-01-13T02:27:14.562Z,0.10
2023-01-13T02:30:18.567Z,0.20
2023-01-13T02:32:56.595Z,0.10
2023-01-13T02:35:30.439Z,0.15
2023-01-13T02:38:01.423Z,0.08
2023-01-13T02:40:36.503Z,0.20
2023-01-13T02:43:26.681Z,0.20
2023-01-13T02:46:04.241Z,0.13
2023-01-13T02:48:33.111Z,0.00
2023-01-13T02:51:04.187Z,0.10
2023-01-13T02:53:36.928Z,0.10
2023-01-13T02:56:07.304Z,0.20
2023-01-13T02:58:37.058Z,0.20
2023-01-13T03:01:06.479Z,0.20
2023-01-13T03:03:34.063Z,0.10
2023-01-13T03:06:09.976Z,0.00
2023-01-13T03:08:47.658Z,0.20
2023-01-13T03:11:16.904Z,0.20
2023-01-13T03:14:11.858Z,0.20
2023-01-13T03:16:59.213Z,0.10
2023-01-13T03:19:37.030Z,0.10
2023-01-13T03:22:16.788Z,0.40
2023-01-13T03:24:48.609Z,0.08
2023-01-13T03:27:23.013Z,0.13
2023-01-13T03:29:57.318Z,0.20
2023-01-13T03:32:30.546Z,0.10
2023-01-13T03:35:04.084Z,0.15
2023-01-13T03:37:36.269Z,0.10
2023-01-13T03:40:11.296Z,0.10
2023-01-13T03:42:41.070Z,0.03
2023-01-13T03:45:11.927Z,0.10
2023-01-13T03:47:45.435Z,0.10
2023-01-13T03:50:20.127Z,0.10
2023-01-13T03:52:52.521Z,0.10
2023-01-13T03:55:23.797Z,0.10
2023-01-13T03:57:56.303Z,0.10
2023-01-13T04:00:29.387Z,0.00
2023-01-13T04:03:06.234Z,0.10
2023-01-13T04:05:36.903Z,0.20
2023-01-13T04:08:13.371Z,0.10
2023-01-13T04:10:46.831Z,0.00
2023-01-13T04:15:47.321Z,0.10
2023-01-13T04:18:18.975Z,0.10
2023-01-13T04:20:48.135Z,0.10
2023-01-13T04:23:16.931Z,0.00
2023-01-13T04:25:45.612Z,0.00
2023-01-13T04:28:13.923Z,0.03
2023-01-13T04:30:42.397Z,0.00
2023-01-13T04:33:10.217Z,0.05
2023-01-13T04:35:39.477Z,0.00
2023-01-13T04:38:09.317Z,0.00
2023-01-13T04:40:37.145Z,0.10
2023-01-13T04:43:05.208Z,0.00
2023-01-13T04:45:32.818Z,0.17
2023-01-13T04:48:00.429Z,0.00
2023-01-13T04:50:28.138Z,0.00
2023-01-13T04:52:57.222Z,0.00
2023-01-13T04:55:27.024Z,0.10
2023-01-13T04:57:54.695Z,0.08
2023-01-13T05:00:23.923Z,0.50
2023-01-13T05:02:52.033Z,0.00
2023-01-13T05:05:19.913Z,0.00
2023-01-13T05:07:47.531Z,0.03
2023-01-13T05:10:17.103Z,0.03
2023-01-13T05:13:02.450Z,0.00
2023-01-13T05:15:47.876Z,0.10
2023-01-13T05:18:16.229Z,0.10
2023-01-13T05:20:43.853Z,0.05
2023-01-13T05:23:29.055Z,0.10
2023-01-13T05:25:57.986Z,0.20
2023-01-13T05:28:25.544Z,0.03
2023-01-13T05:30:53.330Z,0.10
2023-01-13T05:33:21.515Z,0.00
2023-01-13T05:35:49.927Z,0.00
2023-01-13T05:38:18.553Z,0.10
2023-01-13T05:41:03.647Z,0.08
2023-01-13T05:43:33.130Z,0.03
2023-01-13T05:46:02.606Z,0.30
2023-01-13T05:48:32.541Z,0.00
2023-01-13T05:51:00.417Z,0.00
2023-01-13T05:53:28.260Z,0.17
2023-01-13T05:55:56.193Z,0.00
2023-01-13T05:58:25.972Z,0.00
2023-01-13T06:00:59.932Z,0.00
2023-01-13T06:03:27.698Z,0.00
2023-01-13T06:05:58.632Z,0.22
2023-01-13T06:08:26.504Z,0.00
2023-01-13T06:10:54.295Z,0.00
2023-01-13T06:13:21.795Z,0.00
2023-01-13T06:15:49.419Z,0.00
2023-01-13T06:18:18.634Z,0.00
2023-01-13T06:20:47.746Z,0.10
2023-01-13T06:23:15.341Z,0.10
2023-01-13T06:25:47.592Z,0.00
2023-01-13T06:28:15.375Z,0.00
2023-01-13T06:30:46.308Z,0.00
2023-01-13T06:33:18.788Z,0.00
2023-01-13T06:35:55.375Z,0.00
2023-01-13T06:38:25.751Z,0.00
2023-01-13T06:40:53.692Z,0.10
2023-01-13T06:43:20.626Z,0.00
2023-01-13T06:45:51.831Z,0.00
2023-01-13T06:48:21.001Z,0.00
2023-01-13T06:50:49.888Z,0.00
2023-01-13T06:53:17.947Z,0.00
2023-01-13T06:55:45.530Z,0.00
2023-01-13T06:58:13.357Z,0.00
2023-01-13T07:00:41.405Z,0.15
2023-01-13T07:03:10.902Z,0.00
2023-01-13T07:05:38.578Z,0.05
2023-01-13T07:08:07.807Z,0.00
2023-01-13T07:10:36.575Z,0.00
2023-01-13T07:13:23.378Z,0.10
2023-01-13T07:15:56.001Z,0.03
2023-01-13T07:18:24.303Z,0.00
2023-01-13T07:20:56.288Z,0.10
2023-01-13T07:23:25.816Z,0.00
2023-01-13T07:25:56.032Z,0.00
2023-01-13T07:28:23.698Z,0.10
2023-01-13T07:30:51.213Z,0.00
2023-01-13T07:33:18.995Z,0.20
2023-01-13T07:35:46.968Z,0.10
2023-01-13T07:38:14.527Z,0.20
2023-01-13T07:40:43.379Z,0.08
2023-01-13T07:43:30.626Z,0.00
2023-01-13T07:45:59.390Z,0.08
2023-01-13T07:48:27.527Z,0.10
2023-01-13T07:50:55.568Z,0.10
2023-01-13T07:53:24.862Z,0.13
2023-01-13T07:55:56.143Z,0.20
2023-01-13T07:58:23.721Z,0.52
2023-01-13T08:00:51.315Z,0.35
2023-01-13T08:03:19.112Z,0.20
2023-01-13T08:05:46.807Z,0.17
2023-01-13T08:08:14.368Z,0.10
2023-01-13T08:10:42.043Z,0.32
2023-01-13T08:13:21.141Z,0.17
2023-01-13T08:15:51.393Z,0.20
2023-01-13T08:18:21.889Z,0.50
2023-01-13T08:20:52.196Z,0.20
2023-01-13T08:23:20.196Z,0.20
2023-01-13T08:25:47.751Z,0.20
2023-01-13T08:28:18.661Z,0.20
2023-01-13T08:31:12.739Z,0.20
2023-01-13T08:33:40.900Z,0.32
2023-01-13T08:36:10.588Z,0.40
2023-01-13T08:38:38.976Z,0.50
2023-01-13T08:41:10.123Z,0.40
2023-01-13T08:43:39.024Z,0.20
2023-01-13T08:46:07.888Z,0.20
2023-01-13T08:48:35.486Z,0.20
2023-01-13T08:51:04.814Z,0.50
2023-01-13T08:53:32.519Z,0.20
2023-01-13T08:56:00.343Z,0.30
2023-01-13T08:58:27.931Z,0.85
2023-01-13T09:00:56.938Z,0.40
2023-01-13T09:03:24.616Z,0.20
2023-01-13T09:05:52.129Z,1.00
2023-01-13T09:08:20.260Z,0.25
2023-01-13T09:10:47.870Z,0.40
2023-01-13T09:13:15.396Z,0.20
2023-01-13T09:15:46.189Z,0.28
2023-01-13T09:18:15.465Z,0.20
2023-01-13T09:20:44.417Z,0.40
2023-01-13T09:23:11.996Z,0.30
2023-01-13T09:25:39.976Z,0.30
2023-01-13T09:28:08.590Z,0.38
2023-01-13T09:30:37.296Z,0.30
2023-01-13T09:33:22.408Z,0.60
2023-01-13T09:35:51.393Z,0.43
2023-01-13T09:38:18.939Z,0.30
2023-01-13T09:40:49.980Z,0.50
2023-01-13T09:43:39.670Z,0.40
2023-01-13T09:46:36.047Z,0.60
2023-01-13T09:49:04.090Z,0.70
2023-01-13T09:51:39.967Z,0.20
2023-01-13T09:54:15.980Z,0.50
2023-01-13T09:56:43.969Z,0.50
2023-01-13T09:59:12.435Z,0.50
2023-01-13T10:01:47.355Z,0.50
2023-01-13T10:04:16.707Z,0.73
2023-01-13T10:06:50.843Z,0.30
2023-01-13T10:09:23.715Z,0.50
2023-01-13T10:12:10.881Z,0.40
2023-01-13T10:14:43.676Z,0.65
2023-01-13T10:17:21.801Z,0.30
2023-01-13T10:19:53.895Z,0.40
2023-01-13T10:22:50.488Z,0.50
2023-01-13T10:25:40.517Z,0.30
2023-01-13T10:28:11.450Z,0.30
2023-01-13T10:30:40.616Z,0.20
2023-01-13T10:33:12.992Z,0.30
2023-01-13T10:35:55.750Z,0.30
2023-01-13T10:38:27.117Z,0.30
2023-01-13T10:40:57.166Z,0.30
2023-01-13T10:43:25.914Z,0.40
2023-01-13T10:46:00.387Z,1.00
2023-01-13T10:48:34.846Z,1.60
2023-01-13T10:51:12.710Z,0.77
2023-01-13T10:53:53.756Z,0.70
2023-01-13T10:56:23.132Z,0.40
2023-01-13T10:58:50.987Z,0.40
2023-01-13T11:01:25.805Z,0.40
2023-01-13T11:03:55.606Z,1.35
2023-01-13T11:06:25.508Z,0.35
2023-01-13T11:08:58.238Z,0.60
2023-01-13T11:11:40.825Z,0.50
2023-01-13T11:14:39.251Z,0.50
2023-01-13T11:17:15.597Z,0.63
2023-01-13T11:19:47.937Z,0.30
2023-01-13T11:22:18.281Z,0.30
2023-01-13T11:24:53.589Z,0.50
2023-01-13T11:27:26.771Z,0.35
2023-01-13T11:30:09.546Z,0.50
2023-01-13T11:32:45.984Z,0.57
2023-01-13T11:35:18.786Z,0.50
2023-01-13T11:37:52.548Z,0.50
2023-01-13T11:40:28.403Z,0.57
2023-01-13T11:43:04.053Z,0.60
2023-01-13T11:45:39.044Z,0.50
2023-01-13T11:48:07.255Z,0.57
2023-01-13T11:50:41.414Z,0.45
2023-01-13T11:53:18.271Z,0.68
2023-01-13T11:55:59.235Z,0.47
2023-01-13T11:58:52.283Z,0.45
2023-01-13T12:01:37.969Z,1.17
2023-01-13T12:04:22.498Z,0.70
2023-01-13T12:07:00.201Z,0.52
2023-01-13T12:09:37.354Z,0.85
2023-01-13T12:12:22.689Z,0.70
2023-01-13T12:15:04.319Z,0.50
2023-01-13T12:17:38.971Z,1.80
2023-01-13T12:20:26.283Z,0.40
2023-01-13T12:22:57.569Z,0.50
2023-01-13T12:25:33.333Z,0.40
2023-01-13T12:28:07.602Z,0.40
2023-01-13T12:30:41.239Z,0.50
2023-01-13T12:33:20.097Z,0.40
2023-01-13T12:35:57.575Z,1.17
2023-01-13T12:38:35.341Z,2.92
2023-01-13T12:41:13.721Z,1.35
2023-01-13T12:44:04.887Z,0.82
2023-01-13T12:46:53.249Z,0.80
2023-01-13T12:49:38.514Z,0.77
2023-01-13T12:52:19.720Z,0.70
2023-01-13T12:55:10.773Z,0.50
2023-01-13T12:57:39.475Z,2.17
2023-01-13T13:00:18.466Z,2.50
2023-01-13T13:03:22.507Z,1.20
2023-01-13T13:05:58.579Z,1.83
2023-01-13T13:08:41.984Z,1.95
2023-01-13T13:11:53.541Z,1.10
2023-01-13T13:15:06.961Z,0.93
2023-01-13T13:17:44.335Z,0.65
2023-01-13T13:20:53.642Z,0.80
2023-01-13T13:23:50.420Z,0.68
2023-01-13T13:26:24.949Z,0.30
2023-01-13T13:29:23.199Z,0.82
2023-01-13T13:32:33.482Z,0.60
2023-01-13T13:35:16.855Z,0.43
2023-01-13T13:38:14.091Z,0.77
2023-01-13T13:41:02.935Z,0.90
2023-01-13T13:43:55.675Z,0.80
2023-01-13T13:46:43.673Z,0.90
2023-01-13T13:49:11.804Z,0.75
2023-01-13T13:51:46.344Z,0.88
2023-01-13T13:54:18.025Z,0.75
2023-01-13T13:56:48.675Z,1.10
2023-01-13T13:59:19.885Z,0.73
2023-01-13T14:01:53.514Z,0.50
2023-01-13T14:04:25.628Z,0.70
2023-01-13T14:06:56.589Z,0.70
2023-01-13T14:09:26.042Z,0.45
2023-01-13T14:11:59.511Z,0.75
2023-01-13T14:16:55.789Z,0.80
2023-01-13T14:19:31.105Z,0.70
2023-01-13T14:22:02.040Z,0.93
2023-01-13T14:24:30.733Z,0.75
2023-01-13T14:27:10.069Z,0.50
2023-01-13T14:29:38.519Z,0.80
2023-01-13T14:32:07.710Z,1.88
2023-01-13T14:34:36.309Z,0.60
2023-01-13T14:37:23.943Z,0.63
2023-01-13T14:39:51.534Z,0.63
2023-01-13T14:42:19.110Z,0.50
2023-01-13T14:44:48.206Z,0.82
2023-01-13T14:47:23.487Z,0.45
2023-01-13T14:49:58.805Z,0.30
2023-01-13T14:52:29.653Z,0.40
2023-01-13T14:55:28.512Z,0.35
2023-01-13T14:58:28.219Z,0.65
2023-01-13T15:01:28.827Z,0.70
2023-01-13T15:04:15.879Z,0.77
2023-01-13T15:06:47.336Z,0.90
2023-01-13T15:09:25.766Z,0.70
2023-01-13T15:11:54.222Z,1.13
2023-01-13T15:14:26.263Z,0.60
2023-01-13T15:16:53.920Z,0.90
2023-01-13T15:19:21.455Z,1.02
2023-01-13T15:21:48.969Z,1.20
2023-01-13T15:24:17.825Z,2.88
2023-01-13T15:26:45.404Z,1.45
2023-01-13T15:29:15.728Z,1.20
2023-01-13T15:31:43.398Z,1.20
2023-01-13T15:34:10.927Z,1.10
2023-01-13T15:36:38.504Z,2.42
2023-01-13T15:39:07.834Z,0.60
2023-01-13T15:41:54.192Z,1.17
2023-01-13T15:44:39.613Z,1.70
2023-01-13T15:47:09.197Z,1.60
2023-01-13T15:49:40.197Z,1.30
2023-01-13T15:52:19.866Z,2.50
2023-01-13T15:54:47.549Z,1.73
2023-01-13T15:57:22.523Z,2.90
2023-01-13T15:59:50.839Z,0.98
2023-01-13T16:02:19.080Z,2.30
2023-01-13T16:04:46.700Z,1.50
2023-01-13T16:07:17.155Z,2.25
2023-01-13T16:09:44.978Z,0.73
2023-01-13T16:12:12.711Z,0.90
2023-01-13T16:14:41.862Z,1.92
2023-01-13T16:17:16.469Z,0.73
2023-01-13T16:19:44.660Z,1.23
2023-01-13T16:22:14.288Z,1.20
2023-01-13T16:24:42.339Z,1.40
2023-01-13T16:27:14.867Z,1.90
2023-01-13T16:29:44.200Z,0.77
2023-01-13T16:32:12.137Z,2.40
2023-01-13T16:34:39.785Z,1.42
2023-01-13T16:37:11.998Z,0.82
2023-01-13T16:39:39.515Z,0.82
2023-01-13T16:42:07.159Z,1.65
2023-01-13T16:44:34.707Z,0.63
2023-01-13T16:47:03.590Z,1.30
2023-01-13T16:49:31.185Z,0.60
2023-01-13T16:51:58.764Z,0.80
2023-01-13T16:54:26.300Z,0.70
2023-01-13T16:56:54.699Z,0.70
2023-01-13T16:59:22.387Z,0.82
2023-01-13T17:01:50.005Z,0.70
2023-01-13T17:04:21.570Z,0.63
2023-01-13T17:06:54.542Z,1.00
2023-01-13T17:09:24.928Z,0.95
2023-01-13T17:11:52.941Z,0.50
2023-01-13T17:14:23.191Z,0.60
2023-01-13T17:16:51.830Z,0.68
2023-01-13T17:19:22.219Z,0.90
2023-01-13T17:21:50.965Z,1.48
2023-01-13T17:24:18.570Z,1.63
2023-01-13T17:26:49.212Z,0.60
2023-01-13T17:29:19.134Z,0.85
2023-01-13T17:31:46.782Z,0.70
2023-01-13T17:34:14.638Z,0.68
2023-01-13T17:36:43.876Z,0.55
2023-01-13T17:39:16.920Z,0.70
2023-01-13T17:41:44.692Z,0.63
2023-01-13T17:44:14.034Z,0.70
2023-01-13T17:46:42.076Z,1.00
2023-01-13T17:49:10.697Z,0.43
2023-01-13T17:51:38.280Z,1.27
2023-01-13T17:54:12.118Z,1.00
2023-01-13T17:56:40.175Z,1.00
2023-01-13T17:59:10.119Z,0.77
2023-01-13T18:01:38.680Z,0.40
2023-01-13T18:04:06.943Z,0.70
2023-01-13T18:06:34.700Z,0.65
2023-01-13T18:09:02.365Z,0.80
2023-01-13T18:11:31.264Z,0.47
2023-01-13T18:14:00.170Z,1.10
2023-01-13T18:16:30.521Z,0.70
2023-01-13T18:19:19.311Z,0.82
2023-01-13T18:22:05.599Z,0.90
2023-01-13T18:24:51.496Z,0.30
2023-01-13T18:27:28.590Z,0.50
2023-01-13T18:29:58.138Z,1.13
2023-01-13T18:32:29.850Z,0.60
2023-01-13T18:35:05.771Z,0.95
2023-01-13T18:37:35.700Z,0.63
2023-01-13T18:40:03.820Z,0.80
2023-01-13T18:42:50.401Z,0.70
2023-01-13T18:45:18.577Z,3.38
2023-01-13T18:47:46.182Z,2.80
2023-01-13T18:50:13.853Z,3.17
2023-01-13T18:52:41.494Z,1.38
2023-01-13T18:55:09.855Z,0.98
2023-01-13T18:57:41.487Z,1.42
2023-01-13T19:00:11.782Z,0.95
2023-01-13T19:02:39.851Z,0.90
2023-01-13T19:05:08.280Z,1.33
2023-01-13T19:07:36.274Z,1.42
2023-01-13T19:10:05.165Z,0.95
2023-01-13T19:12:33.709Z,0.70
2023-01-13T19:15:03.230Z,1.00
2023-01-13T19:17:32.945Z,0.60
2023-01-13T19:20:00.860Z,0.90
2023-01-13T19:22:30.825Z,0.77
2023-01-13T19:24:59.052Z,1.08
2023-01-13T19:27:28.284Z,0.60
2023-01-13T19:29:58.058Z,1.23
2023-01-13T19:32:27.632Z,0.73
2023-01-13T19:34:59.058Z,0.63
2023-01-13T19:37:30.068Z,0.60
2023-01-13T19:39:58.956Z,0.85
2023-01-13T19:42:44.000Z,0.70
2023-01-13T19:45:30.552Z,0.73
2023-01-13T19:48:01.812Z,1.00
2023-01-13T19:50:29.612Z,0.82
2023-01-13T19:52:57.238Z,0.80
2023-01-13T19:55:24.781Z,0.63
2023-01-13T19:57:52.328Z,0.73
2023-01-13T20:00:21.820Z,0.77
2023-01-13T20:02:51.740Z,0.50
2023-01-13T20:05:25.493Z,0.80
2023-01-13T20:07:53.090Z,1.30
2023-01-13T20:10:22.763Z,0.80
2023-01-13T20:12:50.415Z,0.85
2023-01-13T20:15:18.236Z,0.77
2023-01-13T20:17:45.895Z,0.70
2023-01-13T20:20:15.662Z,0.85
2023-01-13T20:22:44.710Z,1.20
2023-01-13T20:25:16.453Z,0.80
2023-01-13T20:27:44.749Z,1.05
2023-01-13T20:30:14.556Z,1.10
2023-01-13T20:32:43.178Z,1.00
2023-01-13T20:35:11.595Z,1.00
2023-01-13T20:37:40.439Z,1.33
2023-01-13T20:40:14.415Z,1.08
2023-01-13T20:42:44.782Z,1.00
2023-01-13T20:45:17.022Z,1.40
2023-01-13T20:47:45.980Z,0.73
2023-01-13T20:50:14.397Z,0.90
2023-01-13T20:52:42.281Z,0.68
2023-01-13T20:55:12.616Z,1.40
2023-01-13T20:57:40.682Z,0.65
2023-01-13T21:00:10.137Z,0.93
2023-01-13T21:02:40.110Z,1.17
2023-01-13T21:05:08.233Z,1.08
2023-01-13T21:07:35.823Z,1.23
2023-01-13T21:10:03.634Z,1.00
2023-01-13T21:12:50.131Z,1.00
2023-01-13T21:15:17.783Z,0.90
2023-01-13T21:18:03.889Z,1.02
2023-01-13T21:20:33.419Z,1.25
2023-01-13T21:23:02.564Z,1.15
2023-01-13T21:25:30.256Z,0.95
2023-01-13T21:28:02.727Z,0.88
2023-01-13T21:30:30.259Z,1.08
2023-01-13T21:32:58.240Z,1.13
2023-01-13T21:35:25.855Z,1.00
2023-01-13T21:37:53.541Z,1.10
2023-01-13T21:40:21.352Z,0.90
2023-01-13T21:43:06.545Z,1.17
2023-01-13T21:45:53.196Z,0.93
2023-01-13T21:48:20.721Z,0.68
2023-01-13T21:50:48.351Z,1.10
2023-01-13T21:53:15.957Z,0.90
2023-01-13T21:55:43.523Z,0.85
2023-01-13T21:58:13.098Z,1.17
2023-01-13T22:00:43.292Z,1.20
2023-01-13T22:03:12.594Z,1.30
2023-01-13T22:05:40.651Z,1.90
2023-01-13T22:08:08.755Z,1.17
2023-01-13T22:10:36.767Z,1.20
2023-01-13T22:13:19.004Z,0.85
2023-01-13T22:15:48.025Z,0.98
2023-01-13T22:18:17.919Z,1.20
2023-01-13T22:20:45.502Z,1.10
2023-01-13T22:23:13.508Z,1.15
2023-01-13T22:25:41.115Z,1.00
2023-01-13T22:28:09.520Z,1.00
2023-01-13T22:30:37.148Z,0.95
2023-01-13T22:33:06.105Z,0.95
2023-01-13T22:35:33.681Z,1.55
2023-01-13T22:38:01.194Z,0.90
2023-01-13T22:40:28.735Z,1.02
2023-01-13T22:42:56.314Z,1.00
2023-01-13T22:45:23.997Z,1.02
2023-01-13T22:47:51.496Z,1.10
2023-01-13T22:50:22.597Z,1.40
2023-01-13T22:52:50.145Z,1.40
2023-01-13T22:55:17.928Z,1.25
2023-01-13T22:57:48.146Z,1.02
2023-01-13T23:00:18.699Z,1.20
2023-01-13T23:02:46.362Z,0.93
2023-01-13T23:05:14.567Z,1.58
2023-01-13T23:07:43.453Z,1.10
2023-01-13T23:10:12.177Z,1.13
2023-01-13T23:12:39.809Z,1.42
2023-01-13T23:15:08.125Z,1.25
2023-01-13T23:17:35.728Z,0.95
2023-01-13T23:20:03.409Z,1.30
2023-01-13T23:22:31.003Z,1.50
2023-01-13T23:24:59.858Z,1.33
2023-01-13T23:27:27.497Z,1.17
2023-01-13T23:29:56.098Z,0.95
2023-01-13T23:32:23.791Z,1.00
2023-01-13T23:34:51.368Z,0.88
2023-01-13T23:37:18.902Z,1.35
2023-01-13T23:39:46.485Z,1.27
2023-01-13T23:42:15.356Z,1.00
2023-01-13T23:44:43.001Z,1.30
2023-01-13T23:47:11.630Z,1.10
2023-01-13T23:49:39.463Z,0.82
2023-01-13T23:52:07.399Z,1.20
2023-01-13T23:54:35.015Z,0.77
2023-01-13T23:57:02.653Z,0.80
2023-01-13T23:59:31.661Z,0.95
